sensor_id;sensor_type;location;lat;lon;timestamp;P1;durP1;ratioP1;P2;durP2;ratioP2
18013;SDS011;9132;47.946;10.394;2022-09-13T00:00:13;1.90;;;1.30;;
18013;SDS011;9132;47.946;10.394;2022-09-13T00:02:39;2.60;;;1.40;;
18013;SDS011;9132;47.946;10.394;2022-09-13T00:05:06;1.40;;;1.30;;
18013;SDS011;9132;47.946;10.394;2022-09-13T00:07:32;2.90;;;1.20;;
18013;SDS011;9132;47.946;10.394;2022-09-13T00:09:58;3.07;;;1.40;;
18013;SDS011;9132;47.946;10.394;2022-09-13T00:12:25;4.40;;;1.40;;
18013;SDS011;9132;47.946;10.394;2022-09-13T00:14:53;1.20;;;1.10;;
18013;SDS011;9132;47.946;10.394;2022-09-13T00:17:19;1.67;;;1.10;;
18013;SDS011;9132;47.946;10.394;2022-09-13T00:19:47;2.17;;;1.27;;
18013;SDS011;9132;47.946;10.394;2022-09-13T00:22:14;1.47;;;1.20;;
18013;SDS011;9132;47.946;10.394;2022-09-13T00:24:40;1.47;;;1.07;;
18013;SDS011;9132;47.946;10.394;2022-09-13T00:27:06;1.20;;;1.10;;
18013;SDS011;9132;47.946;10.394;2022-09-13T00:29:33;1.37;;;1.23;;
18013;SDS011;9132;47.946;10.394;2022-09-13T00:32:01;1.70;;;1.30;;
18013;SDS011;9132;47.946;10.394;2022-09-13T00:34:28;2.50;;;1.40;;
18013;SDS011;9132;47.946;10.394;2022-09-13T00:36:54;2.90;;;1.30;;
18013;SDS011;9132;47.946;10.394;2022-09-13T00:39:20;1.57;;;1.37;;
18013;SDS011;9132;47.946;10.394;2022-09-13T00:41:47;2.00;;;1.47;;
18013;SDS011;9132;47.946;10.394;2022-09-13T00:46:58;1.40;;;1.23;;
18013;SDS011;9132;47.946;10.394;2022-09-13T00:49:28;3.63;;;1.10;;
18013;SDS011;9132;47.946;10.394;2022-09-13T00:51:57;2.40;;;1.10;;
18013;SDS011;9132;47.946;10.394;2022-09-13T00:54:25;1.87;;;1.00;;
18013;SDS011;9132;47.946;10.394;2022-09-13T00:56:55;1.13;;;1.03;;
18013;SDS011;9132;47.946;10.394;2022-09-13T00:59:23;1.10;;;1.00;;
18013;SDS011;9132;47.946;10.394;2022-09-13T01:01:51;1.10;;;1.00;;
18013;SDS011;9132;47.946;10.394;2022-09-13T01:04:18;1.33;;;1.20;;
18013;SDS011;9132;47.946;10.394;2022-09-13T01:06:47;2.03;;;1.10;;
18013;SDS011;9132;47.946;10.394;2022-09-13T01:09:15;3.13;;;1.10;;
18013;SDS011;9132;47.946;10.394;2022-09-13T01:11:42;1.53;;;1.10;;
18013;SDS011;9132;47.946;10.394;2022-09-13T01:14:11;3.87;;;1.00;;
18013;SDS011;9132;47.946;10.394;2022-09-13T01:16:38;1.23;;;1.10;;
18013;SDS011;9132;47.946;10.394;2022-09-13T01:19:04;1.13;;;1.07;;
18013;SDS011;9132;47.946;10.394;2022-09-13T01:30:01;1.33;;;0.90;;
18013;SDS011;9132;47.946;10.394;2022-09-13T01:32:29;1.23;;;1.00;;
18013;SDS011;9132;47.946;10.394;2022-09-13T01:35:01;2.50;;;1.10;;
18013;SDS011;9132;47.946;10.394;2022-09-13T01:37:32;1.57;;;1.13;;
18013;SDS011;9132;47.946;10.394;2022-09-13T01:40:07;1.03;;;0.97;;
18013;SDS011;9132;47.946;10.394;2022-09-13T01:42:40;1.03;;;1.00;;
18013;SDS011;9132;47.946;10.394;2022-09-13T01:45:14;1.87;;;0.90;;
18013;SDS011;9132;47.946;10.394;2022-09-13T01:47:47;1.10;;;1.00;;
18013;SDS011;9132;47.946;10.394;2022-09-13T01:50:16;2.47;;;1.10;;
18013;SDS011;9132;47.946;10.394;2022-09-13T01:52:47;1.13;;;1.03;;
18013;SDS011;9132;47.946;10.394;2022-09-13T01:55:19;1.17;;;1.10;;
18013;SDS011;9132;47.946;10.394;2022-09-13T01:57:50;2.13;;;1.13;;
18013;SDS011;9132;47.946;10.394;2022-09-13T02:00:19;1.53;;;0.90;;
18013;SDS011;9132;47.946;10.394;2022-09-13T02:02:46;1.00;;;0.90;;
18013;SDS011;9132;47.946;10.394;2022-09-13T02:05:16;1.77;;;1.13;;
18013;SDS011;9132;47.946;10.394;2022-09-13T02:07:44;1.57;;;1.10;;
18013;SDS011;9132;47.946;10.394;2022-09-13T02:10:12;1.00;;;1.00;;
18013;SDS011;9132;47.946;10.394;2022-09-13T02:12:40;1.47;;;1.00;;
18013;SDS011;9132;47.946;10.394;2022-09-13T02:15:09;2.80;;;1.10;;
18013;SDS011;9132;47.946;10.394;2022-09-13T02:17:40;1.40;;;1.30;;
18013;SDS011;9132;47.946;10.394;2022-09-13T02:20:07;1.10;;;1.00;;
18013;SDS011;9132;47.946;10.394;2022-09-13T02:22:36;1.10;;;1.00;;
18013;SDS011;9132;47.946;10.394;2022-09-13T02:25:05;0.80;;;0.80;;
18013;SDS011;9132;47.946;10.394;2022-09-13T02:27:33;1.10;;;0.90;;
18013;SDS011;9132;47.946;10.394;2022-09-13T02:30:00;1.27;;;1.00;;
18013;SDS011;9132;47.946;10.394;2022-09-13T02:32:28;1.63;;;0.90;;
18013;SDS011;9132;47.946;10.394;2022-09-13T02:34:58;1.20;;;1.00;;
18013;SDS011;9132;47.946;10.394;2022-09-13T02:37:26;1.80;;;1.00;;
18013;SDS011;9132;47.946;10.394;2022-09-13T02:39:53;1.00;;;0.90;;
18013;SDS011;9132;47.946;10.394;2022-09-13T02:42:22;1.70;;;0.90;;
18013;SDS011;9132;47.946;10.394;2022-09-13T02:44:51;1.00;;;0.90;;
18013;SDS011;9132;47.946;10.394;2022-09-13T02:47:23;1.27;;;0.90;;
18013;SDS011;9132;47.946;10.394;2022-09-13T02:49:54;2.37;;;1.00;;
18013;SDS011;9132;47.946;10.394;2022-09-13T02:52:26;3.67;;;1.03;;
18013;SDS011;9132;47.946;10.394;2022-09-13T02:54:56;0.80;;;0.80;;
18013;SDS011;9132;47.946;10.394;2022-09-13T02:57:25;1.57;;;0.90;;
18013;SDS011;9132;47.946;10.394;2022-09-13T02:59:53;1.20;;;1.07;;
18013;SDS011;9132;47.946;10.394;2022-09-13T03:02:20;2.20;;;0.97;;
18013;SDS011;9132;47.946;10.394;2022-09-13T03:04:49;1.27;;;0.80;;
18013;SDS011;9132;47.946;10.394;2022-09-13T03:07:15;1.83;;;0.90;;
18013;SDS011;9132;47.946;10.394;2022-09-13T03:09:45;1.80;;;0.90;;
18013;SDS011;9132;47.946;10.394;2022-09-13T03:12:16;1.03;;;0.93;;
18013;SDS011;9132;47.946;10.394;2022-09-13T03:14:48;3.50;;;0.90;;
18013;SDS011;9132;47.946;10.394;2022-09-13T03:17:21;1.30;;;0.97;;
18013;SDS011;9132;47.946;10.394;2022-09-13T03:19:53;0.80;;;0.80;;
18013;SDS011;9132;47.946;10.394;2022-09-13T03:25:08;0.87;;;0.83;;
18013;SDS011;9132;47.946;10.394;2022-09-13T03:27:40;1.00;;;0.90;;
18013;SDS011;9132;47.946;10.394;2022-09-13T03:30:10;2.80;;;1.00;;
18013;SDS011;9132;47.946;10.394;2022-09-13T03:32:40;2.00;;;1.00;;
18013;SDS011;9132;47.946;10.394;2022-09-13T03:35:11;1.50;;;1.00;;
18013;SDS011;9132;47.946;10.394;2022-09-13T03:37:42;2.20;;;0.80;;
18013;SDS011;9132;47.946;10.394;2022-09-13T03:40:12;5.70;;;1.10;;
18013;SDS011;9132;47.946;10.394;2022-09-13T03:42:40;2.40;;;1.10;;
18013;SDS011;9132;47.946;10.394;2022-09-13T03:45:07;1.93;;;0.97;;
18013;SDS011;9132;47.946;10.394;2022-09-13T03:47:35;0.90;;;0.90;;
18013;SDS011;9132;47.946;10.394;2022-09-13T03:50:02;2.60;;;1.10;;
18013;SDS011;9132;47.946;10.394;2022-09-13T03:52:29;1.77;;;1.00;;
18013;SDS011;9132;47.946;10.394;2022-09-13T03:54:56;0.80;;;0.80;;
18013;SDS011;9132;47.946;10.394;2022-09-13T03:57:24;1.37;;;1.13;;
18013;SDS011;9132;47.946;10.394;2022-09-13T03:59:51;2.37;;;1.00;;
18013;SDS011;9132;47.946;10.394;2022-09-13T04:02:18;4.33;;;1.20;;
18013;SDS011;9132;47.946;10.394;2022-09-13T04:04:45;1.47;;;0.90;;
18013;SDS011;9132;47.946;10.394;2022-09-13T04:07:12;1.63;;;0.77;;
18013;SDS011;9132;47.946;10.394;2022-09-13T04:09:39;2.07;;;1.20;;
18013;SDS011;9132;47.946;10.394;2022-09-13T04:12:06;2.73;;;1.07;;
18013;SDS011;9132;47.946;10.394;2022-09-13T04:14:35;2.03;;;1.50;;
18013;SDS011;9132;47.946;10.394;2022-09-13T04:17:01;3.43;;;1.63;;
18013;SDS011;9132;47.946;10.394;2022-09-13T04:19:27;3.50;;;2.83;;
18013;SDS011;9132;47.946;10.394;2022-09-13T04:21:54;3.53;;;3.10;;
18013;SDS011;9132;47.946;10.394;2022-09-13T04:24:22;8.17;;;5.47;;
18013;SDS011;9132;47.946;10.394;2022-09-13T04:26:49;8.70;;;5.10;;
18013;SDS011;9132;47.946;10.394;2022-09-13T04:29:17;8.23;;;5.50;;
18013;SDS011;9132;47.946;10.394;2022-09-13T04:31:44;9.00;;;5.27;;
18013;SDS011;9132;47.946;10.394;2022-09-13T04:34:11;9.53;;;5.60;;
18013;SDS011;9132;47.946;10.394;2022-09-13T04:36:37;7.67;;;5.60;;
18013;SDS011;9132;47.946;10.394;2022-09-13T04:39:04;7.50;;;5.40;;
18013;SDS011;9132;47.946;10.394;2022-09-13T04:41:30;5.87;;;4.10;;
18013;SDS011;9132;47.946;10.394;2022-09-13T04:43:58;3.75;;;3.25;;
18013;SDS011;9132;47.946;10.394;2022-09-13T04:46:25;6.20;;;3.50;;
18013;SDS011;9132;47.946;10.394;2022-09-13T04:48:52;3.93;;;2.90;;
18013;SDS011;9132;47.946;10.394;2022-09-13T04:51:19;4.03;;;2.37;;
18013;SDS011;9132;47.946;10.394;2022-09-13T04:53:45;3.30;;;2.70;;
18013;SDS011;9132;47.946;10.394;2022-09-13T04:56:12;3.10;;;2.17;;
18013;SDS011;9132;47.946;10.394;2022-09-13T04:58:39;3.53;;;1.90;;
18013;SDS011;9132;47.946;10.394;2022-09-13T05:01:07;1.50;;;1.13;;
18013;SDS011;9132;47.946;10.394;2022-09-13T05:03:34;1.43;;;1.23;;
18013;SDS011;9132;47.946;10.394;2022-09-13T05:06:03;1.67;;;1.20;;
18013;SDS011;9132;47.946;10.394;2022-09-13T05:08:30;3.10;;;1.20;;
18013;SDS011;9132;47.946;10.394;2022-09-13T05:10:56;2.30;;;1.27;;
18013;SDS011;9132;47.946;10.394;2022-09-13T05:13:23;0.90;;;0.90;;
18013;SDS011;9132;47.946;10.394;2022-09-13T05:15:49;2.60;;;1.10;;
18013;SDS011;9132;47.946;10.394;2022-09-13T05:18:20;1.67;;;1.00;;
18013;SDS011;9132;47.946;10.394;2022-09-13T05:20:48;3.70;;;1.00;;
18013;SDS011;9132;47.946;10.394;2022-09-13T05:23:15;0.90;;;0.73;;
18013;SDS011;9132;47.946;10.394;2022-09-13T05:25:42;2.50;;;0.93;;
18013;SDS011;9132;47.946;10.394;2022-09-13T05:28:08;2.80;;;1.00;;
18013;SDS011;9132;47.946;10.394;2022-09-13T05:30:36;3.20;;;1.30;;
18013;SDS011;9132;47.946;10.394;2022-09-13T05:33:02;2.80;;;1.10;;
18013;SDS011;9132;47.946;10.394;2022-09-13T05:35:28;1.67;;;1.10;;
18013;SDS011;9132;47.946;10.394;2022-09-13T05:37:55;2.30;;;0.70;;
18013;SDS011;9132;47.946;10.394;2022-09-13T05:40:22;2.07;;;1.10;;
18013;SDS011;9132;47.946;10.394;2022-09-13T05:42:51;3.47;;;1.07;;
18013;SDS011;9132;47.946;10.394;2022-09-13T05:45:17;4.60;;;1.00;;
18013;SDS011;9132;47.946;10.394;2022-09-13T05:47:43;0.80;;;0.80;;
18013;SDS011;9132;47.946;10.394;2022-09-13T05:50:10;3.33;;;0.97;;
18013;SDS011;9132;47.946;10.394;2022-09-13T05:52:36;1.30;;;0.80;;
18013;SDS011;9132;47.946;10.394;2022-09-13T05:55:02;1.57;;;0.80;;
18013;SDS011;9132;47.946;10.394;2022-09-13T05:57:30;0.93;;;0.80;;
18013;SDS011;9132;47.946;10.394;2022-09-13T05:59:56;1.17;;;0.90;;
18013;SDS011;9132;47.946;10.394;2022-09-13T06:02:23;1.30;;;0.80;;
18013;SDS011;9132;47.946;10.394;2022-09-13T06:04:49;1.87;;;1.00;;
18013;SDS011;9132;47.946;10.394;2022-09-13T06:07:16;1.17;;;1.07;;
18013;SDS011;9132;47.946;10.394;2022-09-13T06:09:42;2.10;;;1.00;;
18013;SDS011;9132;47.946;10.394;2022-09-13T06:12:09;1.10;;;0.80;;
18013;SDS011;9132;47.946;10.394;2022-09-13T06:14:36;0.87;;;0.80;;
18013;SDS011;9132;47.946;10.394;2022-09-13T06:17:03;2.70;;;1.10;;
18013;SDS011;9132;47.946;10.394;2022-09-13T06:19:29;2.17;;;0.93;;
18013;SDS011;9132;47.946;10.394;2022-09-13T06:21:55;1.10;;;1.00;;
18013;SDS011;9132;47.946;10.394;2022-09-13T06:24:22;1.70;;;1.00;;
18013;SDS011;9132;47.946;10.394;2022-09-13T06:26:48;3.30;;;1.20;;
18013;SDS011;9132;47.946;10.394;2022-09-13T06:29:15;1.80;;;1.10;;
18013;SDS011;9132;47.946;10.394;2022-09-13T06:31:43;0.90;;;0.90;;
18013;SDS011;9132;47.946;10.394;2022-09-13T06:34:09;3.43;;;0.90;;
18013;SDS011;9132;47.946;10.394;2022-09-13T06:36:36;2.60;;;0.80;;
18013;SDS011;9132;47.946;10.394;2022-09-13T06:39:02;3.00;;;1.20;;
18013;SDS011;9132;47.946;10.394;2022-09-13T06:41:30;1.23;;;0.97;;
18013;SDS011;9132;47.946;10.394;2022-09-13T06:43:57;2.27;;;0.90;;
18013;SDS011;9132;47.946;10.394;2022-09-13T06:46:24;2.03;;;0.80;;
18013;SDS011;9132;47.946;10.394;2022-09-13T06:48:52;1.67;;;0.67;;
18013;SDS011;9132;47.946;10.394;2022-09-13T06:51:19;0.80;;;0.80;;
18013;SDS011;9132;47.946;10.394;2022-09-13T06:53:46;1.47;;;0.90;;
18013;SDS011;9132;47.946;10.394;2022-09-13T06:56:13;1.20;;;1.07;;
18013;SDS011;9132;47.946;10.394;2022-09-13T06:58:40;2.00;;;0.77;;
18013;SDS011;9132;47.946;10.394;2022-09-13T07:01:08;1.37;;;1.00;;
18013;SDS011;9132;47.946;10.394;2022-09-13T07:03:36;1.27;;;0.80;;
18013;SDS011;9132;47.946;10.394;2022-09-13T07:06:08;2.73;;;0.73;;
18013;SDS011;9132;47.946;10.394;2022-09-13T07:08:34;4.77;;;0.70;;
18013;SDS011;9132;47.946;10.394;2022-09-13T07:11:01;2.30;;;0.83;;
18013;SDS011;9132;47.946;10.394;2022-09-13T07:13:27;0.97;;;0.60;;
18013;SDS011;9132;47.946;10.394;2022-09-13T07:15:54;3.22;;;1.02;;
18013;SDS011;9132;47.946;10.394;2022-09-13T07:18:20;3.13;;;0.80;;
18013;SDS011;9132;47.946;10.394;2022-09-13T07:20:46;1.65;;;0.65;;
18013;SDS011;9132;47.946;10.394;2022-09-13T07:23:14;3.05;;;0.75;;
18013;SDS011;9132;47.946;10.394;2022-09-13T07:25:40;2.22;;;0.70;;
18013;SDS011;9132;47.946;10.394;2022-09-13T07:28:06;1.50;;;0.65;;
18013;SDS011;9132;47.946;10.394;2022-09-13T07:30:33;1.05;;;0.50;;
18013;SDS011;9132;47.946;10.394;2022-09-13T07:32:59;2.10;;;0.70;;
18013;SDS011;9132;47.946;10.394;2022-09-13T07:35:25;4.40;;;0.80;;
18013;SDS011;9132;47.946;10.394;2022-09-13T07:37:52;2.13;;;0.60;;
18013;SDS011;9132;47.946;10.394;2022-09-13T07:40:19;0.95;;;0.60;;
18013;SDS011;9132;47.946;10.394;2022-09-13T07:42:45;1.15;;;0.75;;
18013;SDS011;9132;47.946;10.394;2022-09-13T07:45:12;6.00;;;0.70;;
18013;SDS011;9132;47.946;10.394;2022-09-13T07:47:39;0.50;;;0.50;;
18013;SDS011;9132;47.946;10.394;2022-09-13T07:50:06;0.95;;;0.50;;
18013;SDS011;9132;47.946;10.394;2022-09-13T07:52:33;0.65;;;0.50;;
18013;SDS011;9132;47.946;10.394;2022-09-13T07:55:02;0.80;;;0.40;;
18013;SDS011;9132;47.946;10.394;2022-09-13T07:57:29;0.47;;;0.47;;
18013;SDS011;9132;47.946;10.394;2022-09-13T07:59:56;0.90;;;0.43;;
18013;SDS011;9132;47.946;10.394;2022-09-13T08:02:22;1.02;;;0.50;;
18013;SDS011;9132;47.946;10.394;2022-09-13T08:04:48;0.60;;;0.40;;
18013;SDS011;9132;47.946;10.394;2022-09-13T08:07:15;0.63;;;0.40;;
18013;SDS011;9132;47.946;10.394;2022-09-13T08:09:41;1.25;;;0.40;;
18013;SDS011;9132;47.946;10.394;2022-09-13T08:12:07;1.60;;;0.40;;
18013;SDS011;9132;47.946;10.394;2022-09-13T08:14:35;2.63;;;0.50;;
18013;SDS011;9132;47.946;10.394;2022-09-13T08:17:01;1.05;;;0.50;;
18013;SDS011;9132;47.946;10.394;2022-09-13T08:19:28;0.95;;;0.50;;
18013;SDS011;9132;47.946;10.394;2022-09-13T08:21:54;1.85;;;0.57;;
18013;SDS011;9132;47.946;10.394;2022-09-13T08:24:21;1.05;;;0.60;;
18013;SDS011;9132;47.946;10.394;2022-09-13T08:26:47;2.17;;;0.50;;
18013;SDS011;9132;47.946;10.394;2022-09-13T08:29:16;1.73;;;0.60;;
18013;SDS011;9132;47.946;10.394;2022-09-13T08:31:44;0.65;;;0.50;;
18013;SDS011;9132;47.946;10.394;2022-09-13T08:34:10;1.27;;;0.50;;
18013;SDS011;9132;47.946;10.394;2022-09-13T08:36:38;0.50;;;0.40;;
18013;SDS011;9132;47.946;10.394;2022-09-13T08:39:06;2.58;;;0.70;;
18013;SDS011;9132;47.946;10.394;2022-09-13T08:41:37;1.52;;;0.47;;
18013;SDS011;9132;47.946;10.394;2022-09-13T08:44:12;1.48;;;0.50;;
18013;SDS011;9132;47.946;10.394;2022-09-13T08:46:40;0.95;;;0.60;;
18013;SDS011;9132;47.946;10.394;2022-09-13T08:49:10;0.50;;;0.50;;
18013;SDS011;9132;47.946;10.394;2022-09-13T08:51:39;2.05;;;0.75;;
18013;SDS011;9132;47.946;10.394;2022-09-13T08:54:07;4.05;;;0.60;;
18013;SDS011;9132;47.946;10.394;2022-09-13T08:56:37;0.75;;;0.50;;
18013;SDS011;9132;47.946;10.394;2022-09-13T08:59:10;1.73;;;0.55;;
18013;SDS011;9132;47.946;10.394;2022-09-13T09:01:47;0.40;;;0.40;;
18013;SDS011;9132;47.946;10.394;2022-09-13T09:04:27;0.98;;;0.40;;
18013;SDS011;9132;47.946;10.394;2022-09-13T09:06:59;1.05;;;0.75;;
18013;SDS011;9132;47.946;10.394;2022-09-13T09:09:27;0.88;;;0.68;;
18013;SDS011;9132;47.946;10.394;2022-09-13T09:11:55;2.60;;;0.60;;
18013;SDS011;9132;47.946;10.394;2022-09-13T09:14:26;1.80;;;0.60;;
18013;SDS011;9132;47.946;10.394;2022-09-13T09:16:56;0.85;;;0.57;;
18013;SDS011;9132;47.946;10.394;2022-09-13T09:22:32;1.50;;;0.50;;
18013;SDS011;9132;47.946;10.394;2022-09-13T09:24:59;1.20;;;0.60;;
18013;SDS011;9132;47.946;10.394;2022-09-13T09:27:28;2.35;;;0.77;;
18013;SDS011;9132;47.946;10.394;2022-09-13T09:29:55;0.88;;;0.60;;
18013;SDS011;9132;47.946;10.394;2022-09-13T09:32:28;2.38;;;0.75;;
18013;SDS011;9132;47.946;10.394;2022-09-13T09:34:59;1.50;;;0.68;;
18013;SDS011;9132;47.946;10.394;2022-09-13T09:37:34;0.63;;;0.60;;
18013;SDS011;9132;47.946;10.394;2022-09-13T09:40:02;0.50;;;0.50;;
18013;SDS011;9132;47.946;10.394;2022-09-13T09:42:41;0.77;;;0.60;;
18013;SDS011;9132;47.946;10.394;2022-09-13T09:45:17;1.00;;;0.65;;
18013;SDS011;9132;47.946;10.394;2022-09-13T09:47:44;1.70;;;0.68;;
18013;SDS011;9132;47.946;10.394;2022-09-13T09:50:12;1.85;;;0.65;;
18013;SDS011;9132;47.946;10.394;2022-09-13T09:52:42;1.45;;;0.77;;
18013;SDS011;9132;47.946;10.394;2022-09-13T09:55:13;1.45;;;0.70;;
18013;SDS011;9132;47.946;10.394;2022-09-13T09:57:48;1.83;;;0.77;;
18013;SDS011;9132;47.946;10.394;2022-09-13T10:00:15;1.42;;;0.82;;
18013;SDS011;9132;47.946;10.394;2022-09-13T10:02:42;0.77;;;0.70;;
18013;SDS011;9132;47.946;10.394;2022-09-13T10:05:08;0.68;;;0.63;;
18013;SDS011;9132;47.946;10.394;2022-09-13T10:07:37;2.38;;;0.52;;
18013;SDS011;9132;47.946;10.394;2022-09-13T10:10:06;1.23;;;0.60;;
18013;SDS011;9132;47.946;10.394;2022-09-13T10:12:35;3.08;;;0.60;;
18013;SDS011;9132;47.946;10.394;2022-09-13T10:15:04;1.45;;;0.63;;
18013;SDS011;9132;47.946;10.394;2022-09-13T10:17:31;0.75;;;0.52;;
18013;SDS011;9132;47.946;10.394;2022-09-13T10:19:58;1.90;;;0.70;;
18013;SDS011;9132;47.946;10.394;2022-09-13T10:22:26;2.58;;;0.70;;
18013;SDS011;9132;47.946;10.394;2022-09-13T10:24:52;3.63;;;0.73;;
18013;SDS011;9132;47.946;10.394;2022-09-13T10:27:25;2.72;;;0.60;;
18013;SDS011;9132;47.946;10.394;2022-09-13T10:29:54;0.93;;;0.63;;
18013;SDS011;9132;47.946;10.394;2022-09-13T10:32:23;2.10;;;0.50;;
18013;SDS011;9132;47.946;10.394;2022-09-13T10:34:50;1.85;;;0.60;;
18013;SDS011;9132;47.946;10.394;2022-09-13T10:37:17;2.70;;;0.70;;
18013;SDS011;9132;47.946;10.394;2022-09-13T10:39:52;0.70;;;0.57;;
18013;SDS011;9132;47.946;10.394;2022-09-13T10:42:19;1.63;;;0.88;;
18013;SDS011;9132;47.946;10.394;2022-09-13T10:44:51;2.20;;;0.68;;
18013;SDS011;9132;47.946;10.394;2022-09-13T10:47:21;1.30;;;0.70;;
18013;SDS011;9132;47.946;10.394;2022-09-13T10:49:49;2.20;;;0.57;;
18013;SDS011;9132;47.946;10.394;2022-09-13T10:52:27;1.73;;;0.50;;
18013;SDS011;9132;47.946;10.394;2022-09-13T10:54:53;1.85;;;0.50;;
18013;SDS011;9132;47.946;10.394;2022-09-13T10:57:28;0.73;;;0.50;;
18013;SDS011;9132;47.946;10.394;2022-09-13T10:59:57;1.08;;;0.50;;
18013;SDS011;9132;47.946;10.394;2022-09-13T11:02:34;0.65;;;0.60;;
18013;SDS011;9132;47.946;10.394;2022-09-13T11:05:08;1.50;;;0.60;;
18013;SDS011;9132;47.946;10.394;2022-09-13T11:07:42;1.17;;;0.70;;
18013;SDS011;9132;47.946;10.394;2022-09-13T11:10:12;0.93;;;0.60;;
18013;SDS011;9132;47.946;10.394;2022-09-13T11:12:41;1.45;;;0.50;;
18013;SDS011;9132;47.946;10.394;2022-09-13T11:15:16;0.88;;;0.60;;
18013;SDS011;9132;47.946;10.394;2022-09-13T11:17:57;2.17;;;0.60;;
18013;SDS011;9132;47.946;10.394;2022-09-13T11:20:30;1.23;;;0.70;;
18013;SDS011;9132;47.946;10.394;2022-09-13T11:23:13;0.50;;;0.50;;
18013;SDS011;9132;47.946;10.394;2022-09-13T11:25:50;2.47;;;0.50;;
18013;SDS011;9132;47.946;10.394;2022-09-13T11:28:24;1.45;;;0.50;;
18013;SDS011;9132;47.946;10.394;2022-09-13T11:30:59;0.80;;;0.50;;
18013;SDS011;9132;47.946;10.394;2022-09-13T11:33:32;1.17;;;0.50;;
18013;SDS011;9132;47.946;10.394;2022-09-13T11:36:14;0.70;;;0.52;;
18013;SDS011;9132;47.946;10.394;2022-09-13T11:38:49;1.75;;;0.60;;
18013;SDS011;9132;47.946;10.394;2022-09-13T11:41:19;1.25;;;0.60;;
18013;SDS011;9132;47.946;10.394;2022-09-13T11:46:38;0.70;;;0.60;;
18013;SDS011;9132;47.946;10.394;2022-09-13T11:51:53;0.45;;;0.45;;
18013;SDS011;9132;47.946;10.394;2022-09-13T11:54:24;1.75;;;0.50;;
18013;SDS011;9132;47.946;10.394;2022-09-13T11:56:56;2.08;;;0.73;;
18013;SDS011;9132;47.946;10.394;2022-09-13T11:59:26;1.17;;;0.60;;
18013;SDS011;9132;47.946;10.394;2022-09-13T12:02:00;0.80;;;0.60;;
18013;SDS011;9132;47.946;10.394;2022-09-13T12:04:29;0.85;;;0.52;;
18013;SDS011;9132;47.946;10.394;2022-09-13T12:06:58;0.60;;;0.50;;
18013;SDS011;9132;47.946;10.394;2022-09-13T12:09:27;1.83;;;0.40;;
18013;SDS011;9132;47.946;10.394;2022-09-13T12:11:56;0.50;;;0.32;;
18013;SDS011;9132;47.946;10.394;2022-09-13T12:14:25;0.60;;;0.50;;
18013;SDS011;9132;47.946;10.394;2022-09-13T12:16:53;0.70;;;0.40;;
18013;SDS011;9132;47.946;10.394;2022-09-13T12:19:24;0.88;;;0.50;;
18013;SDS011;9132;47.946;10.394;2022-09-13T12:21:52;1.35;;;0.40;;
18013;SDS011;9132;47.946;10.394;2022-09-13T12:24:23;0.85;;;0.50;;
18013;SDS011;9132;47.946;10.394;2022-09-13T12:26:52;1.38;;;0.50;;
18013;SDS011;9132;47.946;10.394;2022-09-13T12:29:21;2.40;;;0.50;;
18013;SDS011;9132;47.946;10.394;2022-09-13T12:31:51;1.42;;;0.60;;
18013;SDS011;9132;47.946;10.394;2022-09-13T12:34:21;0.50;;;0.50;;
18013;SDS011;9132;47.946;10.394;2022-09-13T12:36:57;0.85;;;0.60;;
18013;SDS011;9132;47.946;10.394;2022-09-13T12:42:22;1.23;;;0.50;;
18013;SDS011;9132;47.946;10.394;2022-09-13T12:44:53;0.82;;;0.50;;
18013;SDS011;9132;47.946;10.394;2022-09-13T12:47:32;0.77;;;0.63;;
18013;SDS011;9132;47.946;10.394;2022-09-13T12:52:50;0.43;;;0.43;;
18013;SDS011;9132;47.946;10.394;2022-09-13T12:55:22;0.50;;;0.50;;
18013;SDS011;9132;47.946;10.394;2022-09-13T12:57:56;1.53;;;0.60;;
18013;SDS011;9132;47.946;10.394;2022-09-13T13:00:26;1.05;;;0.40;;
18013;SDS011;9132;47.946;10.394;2022-09-13T13:03:00;0.90;;;0.45;;
18013;SDS011;9132;47.946;10.394;2022-09-13T13:05:30;1.15;;;0.50;;
18013;SDS011;9132;47.946;10.394;2022-09-13T13:08:00;0.65;;;0.30;;
18013;SDS011;9132;47.946;10.394;2022-09-13T13:10:28;1.77;;;0.40;;
18013;SDS011;9132;47.946;10.394;2022-09-13T13:12:55;1.27;;;0.40;;
18013;SDS011;9132;47.946;10.394;2022-09-13T13:18:21;0.63;;;0.40;;
18013;SDS011;9132;47.946;10.394;2022-09-13T13:21:03;0.65;;;0.40;;
18013;SDS011;9132;47.946;10.394;2022-09-13T13:23:31;0.70;;;0.32;;
18013;SDS011;9132;47.946;10.394;2022-09-13T13:26:01;0.40;;;0.40;;
18013;SDS011;9132;47.946;10.394;2022-09-13T13:33:58;2.35;;;0.50;;
18013;SDS011;9132;47.946;10.394;2022-09-13T13:36:27;1.08;;;0.60;;
18013;SDS011;9132;47.946;10.394;2022-09-13T13:38:55;1.63;;;0.57;;
18013;SDS011;9132;47.946;10.394;2022-09-13T13:41:38;0.82;;;0.50;;
18013;SDS011;9132;47.946;10.394;2022-09-13T13:46:54;2.33;;;0.73;;
18013;SDS011;9132;47.946;10.394;2022-09-13T13:49:43;1.08;;;0.57;;
18013;SDS011;9132;47.946;10.394;2022-09-13T13:54:59;3.83;;;0.75;;
18013;SDS011;9132;47.946;10.394;2022-09-13T13:57:27;1.05;;;0.60;;
18013;SDS011;9132;47.946;10.394;2022-09-13T13:59:54;0.68;;;0.68;;
18013;SDS011;9132;47.946;10.394;2022-09-13T14:02:22;2.33;;;0.90;;
18013;SDS011;9132;47.946;10.394;2022-09-13T14:05:08;1.77;;;0.60;;
18013;SDS011;9132;47.946;10.394;2022-09-13T14:10:20;0.98;;;0.68;;
18013;SDS011;9132;47.946;10.394;2022-09-13T14:12:51;2.08;;;1.00;;
18013;SDS011;9132;47.946;10.394;2022-09-13T14:15:23;2.17;;;0.93;;
18013;SDS011;9132;47.946;10.394;2022-09-13T14:17:54;2.28;;;0.75;;
18013;SDS011;9132;47.946;10.394;2022-09-13T14:20:28;1.25;;;0.60;;
18013;SDS011;9132;47.946;10.394;2022-09-13T14:23:10;0.95;;;0.65;;
18013;SDS011;9132;47.946;10.394;2022-09-13T14:25:36;1.02;;;0.80;;
18013;SDS011;9132;47.946;10.394;2022-09-13T14:28:03;3.63;;;0.90;;
18013;SDS011;9132;47.946;10.394;2022-09-13T14:30:33;2.15;;;0.77;;
18013;SDS011;9132;47.946;10.394;2022-09-13T14:33:00;1.33;;;0.80;;
18013;SDS011;9132;47.946;10.394;2022-09-13T14:35:31;1.52;;;0.80;;
18013;SDS011;9132;47.946;10.394;2022-09-13T14:38:08;3.25;;;0.95;;
18013;SDS011;9132;47.946;10.394;2022-09-13T14:40:35;1.83;;;0.90;;
18013;SDS011;9132;47.946;10.394;2022-09-13T14:43:04;1.42;;;0.70;;
18013;SDS011;9132;47.946;10.394;2022-09-13T14:45:38;3.13;;;1.08;;
18013;SDS011;9132;47.946;10.394;2022-09-13T14:48:06;2.53;;;0.73;;
18013;SDS011;9132;47.946;10.394;2022-09-13T14:50:36;4.70;;;0.90;;
18013;SDS011;9132;47.946;10.394;2022-09-13T14:53:05;3.30;;;0.98;;
18013;SDS011;9132;47.946;10.394;2022-09-13T14:55:33;4.82;;;0.90;;
18013;SDS011;9132;47.946;10.394;2022-09-13T14:58:01;1.30;;;0.90;;
18013;SDS011;9132;47.946;10.394;2022-09-13T15:00:28;3.45;;;1.00;;
18013;SDS011;9132;47.946;10.394;2022-09-13T15:02:56;1.40;;;0.80;;
18013;SDS011;9132;47.946;10.394;2022-09-13T15:05:25;1.65;;;0.90;;
18013;SDS011;9132;47.946;10.394;2022-09-13T15:07:53;0.93;;;0.88;;
18013;SDS011;9132;47.946;10.394;2022-09-13T15:10:21;1.00;;;0.80;;
18013;SDS011;9132;47.946;10.394;2022-09-13T15:12:50;1.23;;;0.93;;
18013;SDS011;9132;47.946;10.394;2022-09-13T15:15:21;2.33;;;0.95;;
18013;SDS011;9132;47.946;10.394;2022-09-13T15:17:50;1.45;;;0.73;;
18013;SDS011;9132;47.946;10.394;2022-09-13T15:20:18;1.55;;;0.68;;
18013;SDS011;9132;47.946;10.394;2022-09-13T15:22:44;2.17;;;0.80;;
18013;SDS011;9132;47.946;10.394;2022-09-13T15:25:17;1.88;;;1.05;;
18013;SDS011;9132;47.946;10.394;2022-09-13T15:27:45;1.38;;;0.90;;
18013;SDS011;9132;47.946;10.394;2022-09-13T15:30:18;3.63;;;0.90;;
18013;SDS011;9132;47.946;10.394;2022-09-13T15:32:44;1.55;;;0.70;;
18013;SDS011;9132;47.946;10.394;2022-09-13T15:35:17;1.25;;;1.05;;
18013;SDS011;9132;47.946;10.394;2022-09-13T15:37:43;1.48;;;0.77;;
18013;SDS011;9132;47.946;10.394;2022-09-13T15:40:14;2.92;;;1.20;;
18013;SDS011;9132;47.946;10.394;2022-09-13T15:42:45;3.15;;;1.10;;